sensor_id;sensor_type;location;lat;lon;timestamp;temperature;humidity
7117;DHT22;3600;48.568;7.870;2024-01-06T00:02:09;5.80;99.90
7117;DHT22;3600;48.568;7.870;2024-01-06T00:04:35;5.80;99.90
7117;DHT22;3600;48.568;7.870;2024-01-06T00:07:02;5.80;99.90
7117;DHT22;3600;48.568;7.870;2024-01-06T00:09:29;5.80;99.90
7117;DHT22;3600;48.568;7.870;2024-01-06T00:11:56;5.70;99.90
7117;DHT22;3600;48.568;7.870;2024-01-06T00:14:23;5.70;99.90
7117;DHT22;3600;48.568;7.870;2024-01-06T00:16:50;5.70;99.90
7117;DHT22;3600;48.568;7.870;2024-01-06T00:19:16;5.80;99.90
7117;DHT22;3600;48.568;7.870;2024-01-06T00:21:44;5.80;99.90
7117;DHT22;3600;48.568;7.870;2024-01-06T00:24:11;5.80;99.90
7117;DHT22;3600;48.568;7.870;2024-01-06T00:26:38;5.80;99.90
7117;DHT22;3600;48.568;7.870;2024-01-06T00:29:05;5.80;99.90
7117;DHT22;3600;48.568;7.870;2024-01-06T00:31:32;5.70;99.90
7117;DHT22;3600;48.568;7.870;2024-01-06T00:33:59;5.60;99.90
7117;DHT22;3600;48.568;7.870;2024-01-06T00:36:26;5.60;99.90
7117;DHT22;3600;48.568;7.870;2024-01-06T00:38:53;5.60;99.90
7117;DHT22;3600;48.568;7.870;2024-01-06T00:41:19;5.60;99.90
7117;DHT22;3600;48.568;7.870;2024-01-06T00:43:46;5.60;99.90
7117;DHT22;3600;48.568;7.870;2024-01-06T00:46:13;5.70;99.90
7117;DHT22;3600;48.568;7.870;2024-01-06T00:48:40;5.60;99.90
7117;DHT22;3600;48.568;7.870;2024-01-06T00:51:07;5.50;99.90
7117;DHT22;3600;48.568;7.870;2024-01-06T00:53:34;5.60;99.90
7117;DHT22;3600;48.568;7.870;2024-01-06T00:56:01;5.60;99.90
7117;DHT22;3600;48.568;7.870;2024-01-06T00:58:28;5.60;99.90
7117;DHT22;3600;48.568;7.870;2024-01-06T01:00:55;5.50;99.90
7117;DHT22;3600;48.568;7.870;2024-01-06T01:03:21;5.60;99.90
7117;DHT22;3600;48.568;7.870;2024-01-06T01:05:48;5.60;99.90
7117;DHT22;3600;48.568;7.870;2024-01-06T01:08:15;5.70;99.90
7117;DHT22;3600;48.568;7.870;2024-01-06T01:10:42;5.60;99.90
7117;DHT22;3600;48.568;7.870;2024-01-06T01:13:09;5.70;99.90
7117;DHT22;3600;48.568;7.870;2024-01-06T01:15:36;5.70;99.90
7117;DHT22;3600;48.568;7.870;2024-01-06T01:18:03;5.80;99.90
7117;DHT22;3600;48.568;7.870;2024-01-06T01:20:31;5.70;99.90
7117;DHT22;3600;48.568;7.870;2024-01-06T01:22:57;5.70;99.90
7117;DHT22;3600;48.568;7.870;2024-01-06T01:25:24;5.70;99.90
7117;DHT22;3600;48.568;7.870;2024-01-06T01:27:51;5.70;99.90
7117;DHT22;3600;48.568;7.870;2024-01-06T01:30:18;5.70;99.90
7117;DHT22;3600;48.568;7.870;2024-01-06T01:32:45;5.80;99.90
7117;DHT22;3600;48.568;7.870;2024-01-06T01:35:11;5.70;99.90
7117;DHT22;3600;48.568;7.870;2024-01-06T01:37:38;5.70;99.90
7117;DHT22;3600;48.568;7.870;2024-01-06T01:40:05;5.60;99.90
7117;DHT22;3600;48.568;7.870;2024-01-06T01:42:33;5.50;99.90
7117;DHT22;3600;48.568;7.870;2024-01-06T01:45:00;5.50;99.90
7117;DHT22;3600;48.568;7.870;2024-01-06T01:47:27;5.50;99.90
7117;DHT22;3600;48.568;7.870;2024-01-06T01:49:55;5.40;99.90
7117;DHT22;3600;48.568;7.870;2024-01-06T01:52:23;5.30;99.90
7117;DHT22;3600;48.568;7.870;2024-01-06T01:54:51;5.40;99.90
7117;DHT22;3600;48.568;7.870;2024-01-06T01:57:20;5.60;99.90
7117;DHT22;3600;48.568;7.870;2024-01-06T01:59:47;5.60;99.90
7117;DHT22;3600;48.568;7.870;2024-01-06T02:02:14;5.60;99.90
7117;DHT22;3600;48.568;7.870;2024-01-06T02:04:42;5.60;99.90
7117;DHT22;3600;48.568;7.870;2024-01-06T02:07:09;5.60;99.90
7117;DHT22;3600;48.568;7.870;2024-01-06T02:09:35;5.60;99.90
7117;DHT22;3600;48.568;7.870;2024-01-06T02:12:03;5.60;99.90
7117;DHT22;3600;48.568;7.870;2024-01-06T02:14:29;5.60;99.90
7117;DHT22;3600;48.568;7.870;2024-01-06T02:16:56;5.40;99.90
7117;DHT22;3600;48.568;7.870;2024-01-06T02:19:23;5.30;99.90
7117;DHT22;3600;48.568;7.870;2024-01-06T02:21:54;5.30;99.90
7117;DHT22;3600;48.568;7.870;2024-01-06T02:24:21;5.40;99.90
7117;DHT22;3600;48.568;7.870;2024-01-06T02:26:48;5.30;99.90
7117;DHT22;3600;48.568;7.870;2024-01-06T02:29:15;5.50;99.90
7117;DHT22;3600;48.568;7.870;2024-01-06T02:31:42;5.50;99.90
7117;DHT22;3600;48.568;7.870;2024-01-06T02:34:09;5.30;99.90
7117;DHT22;3600;48.568;7.870;2024-01-06T02:36:36;5.10;99.90
7117;DHT22;3600;48.568;7.870;2024-01-06T02:39:03;5.00;99.90
7117;DHT22;3600;48.568;7.870;2024-01-06T02:41:30;5.10;99.90
7117;DHT22;3600;48.568;7.870;2024-01-06T02:43:56;5.30;99.90
7117;DHT22;3600;48.568;7.870;2024-01-06T02:46:24;5.30;99.90
7117;DHT22;3600;48.568;7.870;2024-01-06T02:48:50;5.30;99.90
7117;DHT22;3600;48.568;7.870;2024-01-06T02:51:17;5.30;99.90
7117;DHT22;3600;48.568;7.870;2024-01-06T02:53:44;5.30;99.90
7117;DHT22;3600;48.568;7.870;2024-01-06T02:56:12;5.30;99.90
7117;DHT22;3600;48.568;7.870;2024-01-06T02:58:39;5.40;99.90
7117;DHT22;3600;48.568;7.870;2024-01-06T03:01:14;5.40;99.90
7117;DHT22;3600;48.568;7.870;2024-01-06T03:03:41;5.40;99.90
7117;DHT22;3600;48.568;7.870;2024-01-06T03:06:07;5.40;99.90
7117;DHT22;3600;48.568;7.870;2024-01-06T03:08:34;5.30;99.90
7117;DHT22;3600;48.568;7.870;2024-01-06T03:11:02;4.90;99.90
7117;DHT22;3600;48.568;7.870;2024-01-06T03:13:30;4.90;99.90
7117;DHT22;3600;48.568;7.870;2024-01-06T03:15:57;4.80;99.90
7117;DHT22;3600;48.568;7.870;2024-01-06T03:18:24;4.70;99.90
7117;DHT22;3600;48.568;7.870;2024-01-06T03:20:51;4.50;99.90
7117;DHT22;3600;48.568;7.870;2024-01-06T03:23:17;4.40;99.90
7117;DHT22;3600;48.568;7.870;2024-01-06T03:25:44;4.60;99.90
7117;DHT22;3600;48.568;7.870;2024-01-06T03:28:11;4.70;99.90
7117;DHT22;3600;48.568;7.870;2024-01-06T03:30:38;4.70;99.90
7117;DHT22;3600;48.568;7.870;2024-01-06T03:33:06;4.70;99.90
7117;DHT22;3600;48.568;7.870;2024-01-06T03:35:33;4.40;99.90
7117;DHT22;3600;48.568;7.870;2024-01-06T03:38:00;4.40;99.90
7117;DHT22;3600;48.568;7.870;2024-01-06T03:40:26;4.30;99.90
7117;DHT22;3600;48.568;7.870;2024-01-06T03:42:53;4.40;99.90
7117;DHT22;3600;48.568;7.870;2024-01-06T03:45:20;4.30;99.90
7117;DHT22;3600;48.568;7.870;2024-01-06T03:47:47;4.30;99.90
7117;DHT22;3600;48.568;7.870;2024-01-06T03:50:14;4.50;99.90
7117;DHT22;3600;48.568;7.870;2024-01-06T03:52:41;4.70;99.90
7117;DHT22;3600;48.568;7.870;2024-01-06T03:55:08;4.70;99.90
7117;DHT22;3600;48.568;7.870;2024-01-06T03:57:35;4.60;99.90
7117;DHT22;3600;48.568;7.870;2024-01-06T04:00:02;4.50;99.90
7117;DHT22;3600;48.568;7.870;2024-01-06T04:02:29;4.50;99.90
7117;DHT22;3600;48.568;7.870;2024-01-06T04:04:56;4.50;99.90
7117;DHT22;3600;48.568;7.870;2024-01-06T04:07:23;4.40;99.90
7117;DHT22;3600;48.568;7.870;2024-01-06T04:09:50;4.40;99.90
7117;DHT22;3600;48.568;7.870;2024-01-06T04:12:17;4.40;99.90
7117;DHT22;3600;48.568;7.870;2024-01-06T04:14:44;4.50;99.90
7117;DHT22;3600;48.568;7.870;2024-01-06T04:17:11;4.60;99.90
7117;DHT22;3600;48.568;7.870;2024-01-06T04:19:38;4.60;99.90
7117;DHT22;3600;48.568;7.870;2024-01-06T04:22:05;4.60;99.90
7117;DHT22;3600;48.568;7.870;2024-01-06T04:24:32;4.60;99.90
7117;DHT22;3600;48.568;7.870;2024-01-06T04:27:01;4.60;99.90
7117;DHT22;3600;48.568;7.870;2024-01-06T04:29:28;4.50;99.90
7117;DHT22;3600;48.568;7.870;2024-01-06T04:31:54;4.60;99.90
7117;DHT22;3600;48.568;7.870;2024-01-06T04:34:21;4.60;99.90
7117;DHT22;3600;48.568;7.870;2024-01-06T04:36:48;4.70;99.90
7117;DHT22;3600;48.568;7.870;2024-01-06T04:39:16;4.60;99.90
7117;DHT22;3600;48.568;7.870;2024-01-06T04:41:43;4.60;99.90
7117;DHT22;3600;48.568;7.870;2024-01-06T04:44:10;4.70;99.90
7117;DHT22;3600;48.568;7.870;2024-01-06T04:46:36;4.90;99.90
7117;DHT22;3600;48.568;7.870;2024-01-06T04:49:03;5.00;99.90
7117;DHT22;3600;48.568;7.870;2024-01-06T04:51:30;4.80;99.90
7117;DHT22;3600;48.568;7.870;2024-01-06T04:53:57;4.80;99.90
7117;DHT22;3600;48.568;7.870;2024-01-06T04:56:24;4.90;99.90
7117;DHT22;3600;48.568;7.870;2024-01-06T04:58:51;4.90;99.90
7117;DHT22;3600;48.568;7.870;2024-01-06T05:01:18;4.90;99.90
7117;DHT22;3600;48.568;7.870;2024-01-06T05:03:45;4.90;99.90
7117;DHT22;3600;48.568;7.870;2024-01-06T05:06:12;4.80;99.90
7117;DHT22;3600;48.568;7.870;2024-01-06T05:08:39;4.80;99.90
7117;DHT22;3600;48.568;7.870;2024-01-06T05:11:12;4.80;99.90
7117;DHT22;3600;48.568;7.870;2024-01-06T05:13:39;4.90;99.90
7117;DHT22;3600;48.568;7.870;2024-01-06T05:16:07;4.90;99.90
7117;DHT22;3600;48.568;7.870;2024-01-06T05:18:36;4.70;99.90
7117;DHT22;3600;48.568;7.870;2024-01-06T05:21:03;4.60;99.90
7117;DHT22;3600;48.568;7.870;2024-01-06T05:23:30;4.70;99.90
7117;DHT22;3600;48.568;7.870;2024-01-06T05:25:57;4.70;99.90
7117;DHT22;3600;48.568;7.870;2024-01-06T05:28:24;4.70;99.90
7117;DHT22;3600;48.568;7.870;2024-01-06T05:30:50;4.70;99.90
7117;DHT22;3600;48.568;7.870;2024-01-06T05:33:17;4.80;99.90
7117;DHT22;3600;48.568;7.870;2024-01-06T05:35:44;4.80;99.90
7117;DHT22;3600;48.568;7.870;2024-01-06T05:38:11;4.90;99.90
7117;DHT22;3600;48.568;7.870;2024-01-06T05:40:38;5.00;99.90
7117;DHT22;3600;48.568;7.870;2024-01-06T05:43:05;5.00;99.90
7117;DHT22;3600;48.568;7.870;2024-01-06T05:45:32;4.90;99.90
7117;DHT22;3600;48.568;7.870;2024-01-06T05:47:59;4.90;99.90
7117;DHT22;3600;48.568;7.870;2024-01-06T05:50:26;5.00;99.90
7117;DHT22;3600;48.568;7.870;2024-01-06T05:52:52;5.20;99.90
7117;DHT22;3600;48.568;7.870;2024-01-06T05:55:20;5.30;99.90
7117;DHT22;3600;48.568;7.870;2024-01-06T05:57:47;5.30;99.90
7117;DHT22;3600;48.568;7.870;2024-01-06T06:00:14;5.40;99.90
7117;DHT22;3600;48.568;7.870;2024-01-06T06:02:41;5.40;99.90
7117;DHT22;3600;48.568;7.870;2024-01-06T06:05:08;5.40;99.90
7117;DHT22;3600;48.568;7.870;2024-01-06T06:07:37;5.30;99.90
7117;DHT22;3600;48.568;7.870;2024-01-06T06:10:11;5.30;99.90
7117;DHT22;3600;48.568;7.870;2024-01-06T06:12:38;5.40;99.90
7117;DHT22;3600;48.568;7.870;2024-01-06T06:15:06;5.40;99.90
7117;DHT22;3600;48.568;7.870;2024-01-06T06:17:33;5.50;99.90
7117;DHT22;3600;48.568;7.870;2024-01-06T06:20:03;5.50;99.90
7117;DHT22;3600;48.568;7.870;2024-01-06T06:22:29;5.60;99.90
7117;DHT22;3600;48.568;7.870;2024-01-06T06:24:58;5.60;99.90
7117;DHT22;3600;48.568;7.870;2024-01-06T06:27:26;5.60;99.90
7117;DHT22;3600;48.568;7.870;2024-01-06T06:29:54;5.60;99.90
7117;DHT22;3600;48.568;7.870;2024-01-06T06:32:21;5.60;99.90
7117;DHT22;3600;48.568;7.870;2024-01-06T06:34:48;5.60;99.90
7117;DHT22;3600;48.568;7.870;2024-01-06T06:37:15;5.70;99.90
7117;DHT22;3600;48.568;7.870;2024-01-06T06:39:42;5.70;99.90
7117;DHT22;3600;48.568;7.870;2024-01-06T06:42:11;5.70;99.90
7117;DHT22;3600;48.568;7.870;2024-01-06T06:44:38;5.70;99.90
7117;DHT22;3600;48.568;7.870;2024-01-06T06:47:05;5.70;99.90
7117;DHT22;3600;48.568;7.870;2024-01-06T06:49:32;5.70;99.90
7117;DHT22;3600;48.568;7.870;2024-01-06T06:51:59;5.70;99.90
7117;DHT22;3600;48.568;7.870;2024-01-06T06:54:25;5.70;99.90
7117;DHT22;3600;48.568;7.870;2024-01-06T06:56:52;5.70;99.90
7117;DHT22;3600;48.568;7.870;2024-01-06T06:59:19;5.70;99.90
7117;DHT22;3600;48.568;7.870;2024-01-06T07:01:46;5.70;99.90
7117;DHT22;3600;48.568;7.870;2024-01-06T07:04:13;5.60;99.90
7117;DHT22;3600;48.568;7.870;2024-01-06T07:06:40;5.70;99.90
7117;DHT22;3600;48.568;7.870;2024-01-06T07:09:07;5.70;99.90
7117;DHT22;3600;48.568;7.870;2024-01-06T07:11:33;5.70;99.90
7117;DHT22;3600;48.568;7.870;2024-01-06T07:14:00;5.80;99.90
7117;DHT22;3600;48.568;7.870;2024-01-06T07:16:27;5.70;99.90
7117;DHT22;3600;48.568;7.870;2024-01-06T07:18:54;5.70;99.90
7117;DHT22;3600;48.568;7.870;2024-01-06T07:21:21;5.70;99.90
7117;DHT22;3600;48.568;7.870;2024-01-06T07:23:50;5.70;99.90
7117;DHT22;3600;48.568;7.870;2024-01-06T07:26:16;5.60;99.90
7117;DHT22;3600;48.568;7.870;2024-01-06T07:28:44;5.60;99.90
7117;DHT22;3600;48.568;7.870;2024-01-06T07:31:11;5.70;99.90
7117;DHT22;3600;48.568;7.870;2024-01-06T07:33:38;5.80;99.90
7117;DHT22;3600;48.568;7.870;2024-01-06T07:36:06;5.80;99.90
7117;DHT22;3600;48.568;7.870;2024-01-06T07:38:33;5.70;99.90
7117;DHT22;3600;48.568;7.870;2024-01-06T07:40:59;5.70;99.90
7117;DHT22;3600;48.568;7.870;2024-01-06T07:43:26;5.70;99.90
7117;DHT22;3600;48.568;7.870;2024-01-06T07:45:53;5.80;99.90
7117;DHT22;3600;48.568;7.870;2024-01-06T07:48:20;5.80;99.90
7117;DHT22;3600;48.568;7.870;2024-01-06T07:50:48;5.80;99.90
7117;DHT22;3600;48.568;7.870;2024-01-06T07:53:14;5.70;99.90
7117;DHT22;3600;48.568;7.870;2024-01-06T07:55:41;5.70;99.90
7117;DHT22;3600;48.568;7.870;2024-01-06T07:58:08;5.70;99.90
7117;DHT22;3600;48.568;7.870;2024-01-06T08:00:35;5.70;99.90
7117;DHT22;3600;48.568;7.870;2024-01-06T08:03:02;5.80;99.90
7117;DHT22;3600;48.568;7.870;2024-01-06T08:05:32;5.80;99.90
7117;DHT22;3600;48.568;7.870;2024-01-06T08:07:59;5.80;99.90
7117;DHT22;3600;48.568;7.870;2024-01-06T08:10:26;5.80;99.90
7117;DHT22;3600;48.568;7.870;2024-01-06T08:12:53;5.80;99.90
7117;DHT22;3600;48.568;7.870;2024-01-06T08:15:21;5.90;99.90
7117;DHT22;3600;48.568;7.870;2024-01-06T08:17:48;5.90;99.90
7117;DHT22;3600;48.568;7.870;2024-01-06T08:20:14;5.90;99.90
7117;DHT22;3600;48.568;7.870;2024-01-06T08:22:41;5.70;99.90
7117;DHT22;3600;48.568;7.870;2024-01-06T08:25:08;5.60;99.90
7117;DHT22;3600;48.568;7.870;2024-01-06T08:27:35;5.50;99.90
7117;DHT22;3600;48.568;7.870;2024-01-06T08:30:02;5.60;99.90
7117;DHT22;3600;48.568;7.870;2024-01-06T08:32:29;5.70;99.90
7117;DHT22;3600;48.568;7.870;2024-01-06T08:34:56;5.80;99.90
7117;DHT22;3600;48.568;7.870;2024-01-06T08:37:23;5.70;99.90
7117;DHT22;3600;48.568;7.870;2024-01-06T08:39:53;5.80;99.90
7117;DHT22;3600;48.568;7.870;2024-01-06T08:42:20;5.90;99.90
7117;DHT22;3600;48.568;7.870;2024-01-06T08:44:47;5.90;99.90
7117;DHT22;3600;48.568;7.870;2024-01-06T08:47:13;6.00;99.90
7117;DHT22;3600;48.568;7.870;2024-01-06T08:49:40;6.00;99.90
7117;DHT22;3600;48.568;7.870;2024-01-06T08:52:07;6.00;99.90
7117;DHT22;3600;48.568;7.870;2024-01-06T08:54:34;6.00;99.90
7117;DHT22;3600;48.568;7.870;2024-01-06T08:57:01;6.00;99.90
7117;DHT22;3600;48.568;7.870;2024-01-06T08:59:28;6.00;99.90
7117;DHT22;3600;48.568;7.870;2024-01-06T09:01:56;5.90;99.90
7117;DHT22;3600;48.568;7.870;2024-01-06T09:04:23;5.90;99.90
7117;DHT22;3600;48.568;7.870;2024-01-06T09:06:50;5.80;99.90
7117;DHT22;3600;48.568;7.870;2024-01-06T09:09:18;5.80;99.90
7117;DHT22;3600;48.568;7.870;2024-01-06T09:11:45;5.90;99.90
7117;DHT22;3600;48.568;7.870;2024-01-06T09:14:12;6.00;99.90
7117;DHT22;3600;48.568;7.870;2024-01-06T09:16:39;6.10;99.90
7117;DHT22;3600;48.568;7.870;2024-01-06T09:19:12;6.20;99.90
7117;DHT22;3600;48.568;7.870;2024-01-06T09:21:39;6.20;99.90
7117;DHT22;3600;48.568;7.870;2024-01-06T09:24:06;6.20;99.90
7117;DHT22;3600;48.568;7.870;2024-01-06T09:26:33;6.30;99.90
7117;DHT22;3600;48.568;7.870;2024-01-06T09:29:03;6.30;99.90
7117;DHT22;3600;48.568;7.870;2024-01-06T09:31:30;6.20;99.90
7117;DHT22;3600;48.568;7.870;2024-01-06T09:34:00;6.20;99.90
7117;DHT22;3600;48.568;7.870;2024-01-06T09:36:32;6.10;99.90
7117;DHT22;3600;48.568;7.870;2024-01-06T09:38:59;6.10;99.90
7117;DHT22;3600;48.568;7.870;2024-01-06T09:41:26;6.20;99.90
7117;DHT22;3600;48.568;7.870;2024-01-06T09:43:53;6.30;99.90
7117;DHT22;3600;48.568;7.870;2024-01-06T09:46:27;6.30;99.90
7117;DHT22;3600;48.568;7.870;2024-01-06T09:48:56;6.20;99.90
7117;DHT22;3600;48.568;7.870;2024-01-06T09:51:24;6.10;99.90
7117;DHT22;3600;48.568;7.870;2024-01-06T09:54:01;6.10;99.90
7117;DHT22;3600;48.568;7.870;2024-01-06T09:56:30;6.00;99.90
7117;DHT22;3600;48.568;7.870;2024-01-06T09:58:57;6.00;99.90
7117;DHT22;3600;48.568;7.870;2024-01-06T10:01:24;6.00;99.90
7117;DHT22;3600;48.568;7.870;2024-01-06T10:03:52;5.90;99.90
7117;DHT22;3600;48.568;7.870;2024-01-06T10:06:19;6.00;99.90
7117;DHT22;3600;48.568;7.870;2024-01-06T10:08:52;6.00;99.90
7117;DHT22;3600;48.568;7.870;2024-01-06T10:11:19;6.10;99.90
7117;DHT22;3600;48.568;7.870;2024-01-06T10:13:49;6.10;99.90
7117;DHT22;3600;48.568;7.870;2024-01-06T10:16:18;6.20;99.90
7117;DHT22;3600;48.568;7.870;2024-01-06T10:18:45;6.00;99.90
7117;DHT22;3600;48.568;7.870;2024-01-06T10:21:16;6.00;99.90
7117;DHT22;3600;48.568;7.870;2024-01-06T10:23:44;6.10;99.90
7117;DHT22;3600;48.568;7.870;2024-01-06T10:26:12;6.10;99.90
7117;DHT22;3600;48.568;7.870;2024-01-06T10:28:40;6.20;99.90
7117;DHT22;3600;48.568;7.870;2024-01-06T10:31:08;6.20;99.90
7117;DHT22;3600;48.568;7.870;2024-01-06T10:33:35;6.20;99.90
7117;DHT22;3600;48.568;7.870;2024-01-06T10:36:03;6.20;99.90
7117;DHT22;3600;48.568;7.870;2024-01-06T10:38:33;6.30;99.90
7117;DHT22;3600;48.568;7.870;2024-01-06T10:41:04;6.30;99.90
7117;DHT22;3600;48.568;7.870;2024-01-06T10:43:35;6.40;99.90
7117;DHT22;3600;48.568;7.870;2024-01-06T10:46:08;6.30;99.90
7117;DHT22;3600;48.568;7.870;2024-01-06T10:48:39;6.30;99.90
7117;DHT22;3600;48.568;7.870;2024-01-06T10:51:11;6.40;99.90
7117;DHT22;3600;48.568;7.870;2024-01-06T10:53:40;6.60;99.90
7117;DHT22;3600;48.568;7.870;2024-01-06T10:56:08;6.70;99.90
7117;DHT22;3600;48.568;7.870;2024-01-06T10:58:36;6.70;99.90
7117;DHT22;3600;48.568;7.870;2024-01-06T11:01:09;6.70;99.90
7117;DHT22;3600;48.568;7.870;2024-01-06T11:03:37;6.70;99.90
7117;DHT22;3600;48.568;7.870;2024-01-06T11:06:06;6.70;99.90
7117;DHT22;3600;48.568;7.870;2024-01-06T11:08:40;6.70;99.90
7117;DHT22;3600;48.568;7.870;2024-01-06T11:11:17;6.70;99.90
7117;DHT22;3600;48.568;7.870;2024-01-06T11:13:45;6.60;99.90
7117;DHT22;3600;48.568;7.870;2024-01-06T11:16:11;6.60;99.90
7117;DHT22;3600;48.568;7.870;2024-01-06T11:18:58;6.60;99.90
7117;DHT22;3600;48.568;7.870;2024-01-06T11:21:25;6.70;99.90
7117;DHT22;3600;48.568;7.870;2024-01-06T11:24:13;6.70;99.90
7117;DHT22;3600;48.568;7.870;2024-01-06T11:26:45;6.60;99.90
7117;DHT22;3600;48.568;7.870;2024-01-06T11:29:15;6.60;99.90
7117;DHT22;3600;48.568;7.870;2024-01-06T11:31:42;6.60;99.90
7117;DHT22;3600;48.568;7.870;2024-01-06T11:34:17;6.70;99.90
7117;DHT22;3600;48.568;7.870;2024-01-06T11:36:47;6.70;99.90
7117;DHT22;3600;48.568;7.870;2024-01-06T11:39:33;6.80;99.90
7117;DHT22;3600;48.568;7.870;2024-01-06T11:42:01;6.60;99.90
7117;DHT22;3600;48.568;7.870;2024-01-06T11:44:28;6.60;99.90
7117;DHT22;3600;48.568;7.870;2024-01-06T11:46:56;6.50;99.90
7117;DHT22;3600;48.568;7.870;2024-01-06T11:49:26;6.50;99.90
7117;DHT22;3600;48.568;7.870;2024-01-06T11:51:57;6.50;99.90
7117;DHT22;3600;48.568;7.870;2024-01-06T11:54:24;6.60;99.90
7117;DHT22;3600;48.568;7.870;2024-01-06T11:56:51;6.60;99.90
7117;DHT22;3600;48.568;7.870;2024-01-06T11:59:22;6.50;99.90
7117;DHT22;3600;48.568;7.870;2024-01-06T12:01:49;6.50;99.90
7117;DHT22;3600;48.568;7.870;2024-01-06T12:04:17;6.50;99.90
7117;DHT22;3600;48.568;7.870;2024-01-06T12:06:44;6.50;99.90
7117;DHT22;3600;48.568;7.870;2024-01-06T12:09:12;6.40;99.90
7117;DHT22;3600;48.568;7.870;2024-01-06T12:11:42;6.50;99.90
7117;DHT22;3600;48.568;7.870;2024-01-06T12:14:12;6.50;99.90
7117;DHT22;3600;48.568;7.870;2024-01-06T12:16:38;6.50;99.90
7117;DHT22;3600;48.568;7.870;2024-01-06T12:19:05;6.50;99.90
7117;DHT22;3600;48.568;7.870;2024-01-06T12:21:33;6.40;99.90
7117;DHT22;3600;48.568;7.870;2024-01-06T12:24:18;6.40;99.90
7117;DHT22;3600;48.568;7.870;2024-01-06T12:26:47;6.50;99.90
7117;DHT22;3600;48.568;7.870;2024-01-06T12:29:17;6.40;99.90
7117;DHT22;3600;48.568;7.870;2024-01-06T12:31:44;6.40;99.90
7117;DHT22;3600;48.568;7.870;2024-01-06T12:34:11;6.40;99.90
7117;DHT22;3600;48.568;7.870;2024-01-06T12:36:39;6.50;99.90
7117;DHT22;3600;48.568;7.870;2024-01-06T12:39:10;6.50;99.90
7117;DHT22;3600;48.568;7.870;2024-01-06T12:41:41;6.30;99.90
7117;DHT22;3600;48.568;7.870;2024-01-06T12:44:08;6.30;99.90
7117;DHT22;3600;48.568;7.870;2024-01-06T12:46:35;6.30;99.90
7117;DHT22;3600;48.568;7.870;2024-01-06T12:49:02;6.30;99.90
7117;DHT22;3600;48.568;7.870;2024-01-06T12:51:29;6.40;99.90
7117;DHT22;3600;48.568;7.870;2024-01-06T12:53:57;6.40;99.90
7117;DHT22;3600;48.568;7.870;2024-01-06T12:56:23;6.40;99.90
7117;DHT22;3600;48.568;7.870;2024-01-06T12:58:50;6.40;99.90
7117;DHT22;3600;48.568;7.870;2024-01-06T13:01:17;6.50;99.90
7117;DHT22;3600;48.568;7.870;2024-01-06T13:03:44;6.50;99.90
7117;DHT22;3600;48.568;7.870;2024-01-06T13:06:11;6.50;99.90
7117;DHT22;3600;48.568;7.870;2024-01-06T13:08:38;6.50;99.90
7117;DHT22;3600;48.568;7.870;2024-01-06T13:11:05;6.50;99.90
7117;DHT22;3600;48.568;7.870;2024-01-06T13:13:33;6.50;99.90
7117;DHT22;3600;48.568;7.870;2024-01-06T13:16:01;6.40;99.90
7117;DHT22;3600;48.568;7.870;2024-01-06T13:18:30;6.40;99.90
7117;DHT22;3600;48.568;7.870;2024-01-06T13:20:57;6.30;99.90
7117;DHT22;3600;48.568;7.870;2024-01-06T13:23:24;6.40;99.90
7117;DHT22;3600;48.568;7.870;2024-01-06T13:25:51;6.40;99.90
7117;DHT22;3600;48.568;7.870;2024-01-06T13:28:17;6.40;99.90
7117;DHT22;3600;48.568;7.870;2024-01-06T13:30:44;6.40;99.90
7117;DHT22;3600;48.568;7.870;2024-01-06T13:33:11;6.30;99.90
7117;DHT22;3600;48.568;7.870;2024-01-06T13:35:38;6.30;99.90
7117;DHT22;3600;48.568;7.870;2024-01-06T13:38:05;6.30;99.90
7117;DHT22;3600;48.568;7.870;2024-01-06T13:40:32;6.20;99.90
7117;DHT22;3600;48.568;7.870;2024-01-06T13:42:59;6.40;99.90
7117;DHT22;3600;48.568;7.870;2024-01-06T13:45:26;6.30;99.90
7117;DHT22;3600;48.568;7.870;2024-01-06T13:47:53;6.30;99.90
7117;DHT22;3600;48.568;7.870;2024-01-06T13:50:20;6.20;99.90
7117;DHT22;3600;48.568;7.870;2024-01-06T13:52:47;6.20;99.90
7117;DHT22;3600;48.568;7.870;2024-01-06T13:55:15;6.20;99.90
7117;DHT22;3600;48.568;7.870;2024-01-06T13:57:41;6.20;99.90
7117;DHT22;3600;48.568;7.870;2024-01-06T14:00:09;6.30;99.90
7117;DHT22;3600;48.568;7.870;2024-01-06T14:02:37;6.20;99.90
7117;DHT22;3600;48.568;7.870;2024-01-06T14:05:05;6.30;99.90
7117;DHT22;3600;48.568;7.870;2024-01-06T14:07:35;6.30;99.90
7117;DHT22;3600;48.568;7.870;2024-01-06T14:10:05;6.20;99.90
7117;DHT22;3600;48.568;7.870;2024-01-06T14:12:32;6.20;99.90
7117;DHT22;3600;48.568;7.870;2024-01-06T14:14:59;6.20;99.90
7117;DHT22;3600;48.568;7.870;2024-01-06T14:17:28;6.20;99.90
7117;DHT22;3600;48.568;7.870;2024-01-06T14:19:54;6.20;99.90
7117;DHT22;3600;48.568;7.870;2024-01-06T14:22:21;6.20;99.90
7117;DHT22;3600;48.568;7.870;2024-01-06T14:24:48;6.20;99.90
7117;DHT22;3600;48.568;7.870;2024-01-06T14:27:16;6.20;99.90
7117;DHT22;3600;48.568;7.870;2024-01-06T14:29:43;6.20;99.90
7117;DHT22;3600;48.568;7.870;2024-01-06T14:32:10;6.20;99.90
7117;DHT22;3600;48.568;7.870;2024-01-06T14:34:37;6.20;99.90
7117;DHT22;3600;48.568;7.870;2024-01-06T14:37:04;6.20;99.90
7117;DHT22;3600;48.568;7.870;2024-01-06T14:39:31;6.20;99.90
7117;DHT22;3600;48.568;7.870;2024-01-06T14:41:57;6.20;99.90
7117;DHT22;3600;48.568;7.870;2024-01-06T14:44:24;6.20;99.90
7117;DHT22;3600;48.568;7.870;2024-01-06T14:46:53;6.20;99.90
7117;DHT22;3600;48.568;7.870;2024-01-06T14:49:20;6.30;99.90
7117;DHT22;3600;48.568;7.870;2024-01-06T14:51:47;6.30;99.90
7117;DHT22;3600;48.568;7.870;2024-01-06T14:54:14;6.20;99.90
7117;DHT22;3600;48.568;7.870;2024-01-06T14:56:41;6.20;99.90
7117;DHT22;3600;48.568;7.870;2024-01-06T14:59:08;6.20;99.90
7117;DHT22;3600;48.568;7.870;2024-01-06T15:01:35;6.20;99.90
7117;DHT22;3600;48.568;7.870;2024-01-06T15:04:02;6.20;99.90
7117;DHT22;3600;48.568;7.870;2024-01-06T15:06:29;6.20;99.90
7117;DHT22;3600;48.568;7.870;2024-01-06T15:08:56;6.30;99.90
7117;DHT22;3600;48.568;7.870;2024-01-06T15:11:23;6.30;99.90
7117;DHT22;3600;48.568;7.870;2024-01-06T15:13:50;6.40;99.90
7117;DHT22;3600;48.568;7.870;2024-01-06T15:16:17;6.30;99.90
7117;DHT22;3600;48.568;7.870;2024-01-06T15:18:44;6.30;99.90
7117;DHT22;3600;48.568;7.870;2024-01-06T15:21:11;6.30;99.90
7117;DHT22;3600;48.568;7.870;2024-01-06T15:23:39;6.30;99.90
7117;DHT22;3600;48.568;7.870;2024-01-06T15:26:06;6.30;99.90
7117;DHT22;3600;48.568;7.870;2024-01-06T15:28:35;6.30;99.90
7117;DHT22;3600;48.568;7.870;2024-01-06T15:31:02;6.30;99.90
7117;DHT22;3600;48.568;7.870;2024-01-06T15:33:30;6.30;99.90
7117;DHT22;3600;48.568;7.870;2024-01-06T15:35:57;6.30;99.90
7117;DHT22;3600;48.568;7.870;2024-01-06T15:38:24;6.30;99.90
7117;DHT22;3600;48.568;7.870;2024-01-06T15:40:51;6.40;99.90
7117;DHT22;3600;48.568;7.870;2024-01-06T15:43:18;6.40;99.90
7117;DHT22;3600;48.568;7.870;2024-01-06T15:45:44;6.30;99.90
7117;DHT22;3600;48.568;7.870;2024-01-06T15:48:11;6.30;99.90
7117;DHT22;3600;48.568;7.870;2024-01-06T15:50:38;6.30;99.90
7117;DHT22;3600;48.568;7.870;2024-01-06T15:53:05;6.30;99.90
7117;DHT22;3600;48.568;7.870;2024-01-06T15:55:32;6.30;99.90
7117;DHT22;3600;48.568;7.870;2024-01-06T15:57:58;6.30;99.90
7117;DHT22;3600;48.568;7.870;2024-01-06T16:00:26;6.30;99.90
7117;DHT22;3600;48.568;7.870;2024-01-06T16:02:52;6.30;99.90
7117;DHT22;3600;48.568;7.870;2024-01-06T16:05:19;6.40;99.90
7117;DHT22;3600;48.568;7.870;2024-01-06T16:07:46;6.20;99.90
7117;DHT22;3600;48.568;7.870;2024-01-06T16:10:13;6.30;99.90
7117;DHT22;3600;48.568;7.870;2024-01-06T16:12:40;6.20;99.90
7117;DHT22;3600;48.568;7.870;2024-01-06T16:15:08;6.20;99.90
7117;DHT22;3600;48.568;7.870;2024-01-06T16:17:35;6.20;99.90
7117;DHT22;3600;48.568;7.870;2024-01-06T16:20:03;6.10;99.90